• Join FlightAware (Why Join?)
  • Login
  • US Flag 
11:56PM EDT


 

Airport Tracker/Info


-or-


 

Live Flight TrackerFlight Track Log ✈ N184RB ✈ 22-Jun-2013 ✈ KDAY - KYNG

Flight Track Log - Related Links

Times and Time Zones

All times are in EDT time to prevent confusion due to time zone crossing. See the N184RB flight status page for this flight to view local times or setup timezone preferences in your user account.

Time Position Orientation Groundspeed Altitude Reporting Facility
EDT Latitude Longitude Course Direction KTS MPH feet Rate Location/Type
06:18PM 39.8919 -84.2217 167° South 110 127 1,300  Level Indianapolis Center
06:19PM 39.8561 -84.2111 167° South 145 167 3,100 1,500 Climbing Indianapolis Center
06:20PM 39.8264 -84.1786 140° Southeast 146 168 4,600 1,320 Climbing Indianapolis Center
06:21PM 39.8217 -84.1239 96° East 163 188 5,800 1,440 Climbing Indianapolis Center
06:22PM 39.8400 -84.0700 66° East 163 188 7,600 1,620 Climbing Indianapolis Center
06:23PM 39.8511 -84.0128 76° East 161 185 9,200 1,440 Climbing Indianapolis Center
06:24PM 39.8636 -83.9564 74° East 162 186 10,600 1,260 Climbing Indianapolis Center
06:25PM 39.8761 -83.8989 74° East 164 189 11,800 1,200 Climbing Indianapolis Center
06:26PM 39.8889 -83.8394 74° East 168 193 13,100 1,200 Climbing Indianapolis Center
06:27PM 39.9028 -83.7781 74° East 173 199 14,300 1,200 Climbing Indianapolis Center
06:28PM 39.9169 -83.7158 73° East 176 203 15,600 1,080 Climbing Indianapolis Center
06:29PM 39.9542 -83.6694 44° Northeast 183 211 16,600 1,020 Climbing Indianapolis Center
06:30PM 39.9836 -83.6006 61° Northeast 183 211 17,800 960 Climbing Indianapolis Center
06:31PM 40.0022 -83.5353 70° East 187 215 18,600 780 Climbing Indianapolis Center
06:32PM 40.0119 -83.4647 80° East 195 224 19,500 840 Climbing Indianapolis Center
06:33PM 40.0242 -83.3942 77° East 196 226 20,400 780 Climbing Indianapolis Center
06:34PM 40.0367 -83.3228 77° East 199 229 21,100 720 Climbing Indianapolis Center
06:35PM 40.0467 -83.2489 80° East 203 234 21,900 360 Climbing Indianapolis Center
06:36PM 40.0536 -83.1672 84° East 221 254 21,900  Level Indianapolis Center
06:37PM 40.0583 -83.0803 86° East 238 274 21,900  Level Indianapolis Center
06:38PM 40.0714 -82.9936 79° East 244 281 21,900  Level Indianapolis Center
06:39PM 40.1147 -82.9244 51° Northeast 245 282 21,900  Level Indianapolis Center
06:40PM 40.1547 -82.8528 54° Northeast 242 278 21,900  Level Indianapolis Center
06:41PM 40.1961 -82.7858 51° Northeast 236 272 21,900 -300 Level Indianapolis Center
06:42PM 40.2358 -82.7169 53° Northeast 236 272 21,400 -480 Descending Indianapolis Center
06:43PM 40.2836 -82.6367 52° Northeast 248 285 21,000 -240 Descending Indianapolis Center
06:44PM 40.3242 -82.5667 53° Northeast 241 277 21,000  Level Indianapolis Center
06:45PM 40.3642 -82.4950 54° Northeast 241 277 21,000  Level Indianapolis Center
06:46PM 40.3994 -82.4211 58° Northeast 239 275 21,000  Level Indianapolis Center
06:47PM 40.4375 -82.3475 56° Northeast 242 278 21,000  Level Indianapolis Center
06:48PM 40.4747 -82.2731 57° Northeast 241 277 21,000 -60 Level Indianapolis Center
06:49PM 40.5131 -82.2000 55° Northeast 241 277 20,900 -300 Descending Indianapolis Center
06:50PM 40.5503 -82.1231 57° Northeast 247 284 20,400 -780 Descending Indianapolis Center
06:51PM 40.5889 -82.0456 57° Northeast 250 288 19,400 -1,020 Descending Indianapolis Center
06:52PM 40.6264 -81.9703 57° Northeast 246 283 18,400 -900 Descending Indianapolis Center
06:53PM 40.6492 -81.9239 57° Northeast 235 270 17,900 -780 Descending Cleveland Center
06:54PM 40.6856 -81.8536 56° Northeast 230 265 17,100 -840 Descending Cleveland Center
06:55PM 40.7175 -81.7883 57° Northeast 225 259 16,300 -780 Descending Cleveland Center
06:56PM 40.7514 -81.7206 57° Northeast 225 259 15,600 -780 Descending Cleveland Center
06:57PM 40.7875 -81.6472 57° Northeast 220 253 14,800 -780 Descending Cleveland Center
06:58PM 40.8217 -81.5817 55° Northeast 220 253 14,100 -600 Descending Cleveland Center
06:59PM 40.8514 -81.5164 59° Northeast 213 245 13,600 -660 Descending Cleveland Center
07:00PM 40.8872 -81.4483 55° Northeast 218 251 12,800 -660 Descending Cleveland Center
07:01PM 40.9169 -81.3856 58° Northeast 209 241 12,300 -600 Descending Cleveland Center
07:02PM 40.9464 -81.3253 57° Northeast 198 228 11,700 -600 Descending Cleveland Center
07:03PM 40.9739 -81.2678 58° Northeast 191 220 11,100 -600 Descending Cleveland Center
07:04PM 41.0036 -81.2078 57° Northeast 191 220 10,600 -660 Descending Cleveland Center
07:05PM 41.0331 -81.1475 57° Northeast 191 220 9,800 -660 Descending Cleveland Center
07:06PM 41.0644 -81.0897 54° Northeast 191 220 9,300 -540 Descending Cleveland Center
07:07PM 41.0919 -81.0239 61° Northeast 196 226 8,800 -540 Descending Cleveland Center
07:08PM 41.1214 -80.9664 56° Northeast 191 220 8,300 -780 Descending Cleveland Center
07:09PM 41.1508 -80.9086 56° Northeast 191 220 7,300 -900 Descending Cleveland Center
07:10PM 41.1781 -80.8508 58° Northeast 191 220 6,600 -1,140 Descending Cleveland Center
07:11PM 41.2072 -80.8094 47° Northeast 178 205 5,100 -1,200 Descending Cleveland Center
07:12PM 41.2447 -80.7764 34° Northeast 157 181 4,200 -900 Descending Cleveland Center
07:13PM 41.2783 -80.7544 26° Northeast 142 163 3,300 -960 Descending Cleveland Center
07:14PM 41.2928 -80.7214 60° Northeast 126 145 2,300 2,820 Descending Cleveland Center
07:15PM 41.3303 -80.6936 29° Northeast 126 145 9,000 6,660 Climbing Cleveland Center
07:17PM 41.2616 -80.6804 166° South  Level Estimated
07:24PM 41.2616 -80.6804 56° Northeast  Level Estimated